Aérodrome :
LOGIN :

S'inscrire | Disclaimer

   EN    FR    IT 

 










Légende :    VFR   VFR Marginal   IFR   IFR Intensif   IFR Très Intensif
Visi : 
Plafond : 
>= 8 km
>= 3000ft
5 à 8 km
1000 à 3000 ft
1500m à 5 km
500 à 1000 ft
800 à 1500m
200 à 500 ft
< 800m
< 200 ft
Symboles :   Orages  Brouillard  Fortes neiges  Fortes précipitations  Vent > 20 kt
SIGMETs :   Divers  Orages  Givrage  Turbulence  Onde Orograph.  Cendres Volcan.







- Altitude de l'aérodrome : 989 ft
- Code IATA : TRN


LIMF - Torino Caselle

DERNIER METAR :
  • 220250Z VRB02KT 9999 BKN080 13/11 Q1013

METARs EXPIRÉS :
  • 220220Z 26005KT 9999 SCT075 14/12 Q1013
  • 220150Z 23004KT 9999 FEW035CB BKN075 13/12 Q1013
  • 220120Z 25004KT 9999 FEW035CB SCT065 14/12 Q1013
  • 220050Z 23005KT 9999 VCTS FEW035CB SCT075 14/12 Q1013 RETS
  • 220020Z VRB02KT 9999 TS SCT035CB BKN075 14/11 Q1013

TAF TAF LIMF
Valide du 22 à 00h jusqu'au 23 à 00h UTC


212300Z 2200/2224 VRB05KT 9999 SCT040
PROB40
TEMPO 2215/2224 TSRA
Pas de NOTAMs connus pour ce terrain.



MET'MAP, la Météo Aéronautique d'un coup d'oeil ! - Copyright ORBIFLY Décembre 2007 - Disclaimer

ORBIFLY MET'MAP TEAM :

Programmation & Développement : Alexandra Zaïnal
Conception & Développement : Baudouin d'Aumeries
Co-Programmation & Développement : Marc-Olivier Méhu
Soutien technique & logistique : Manuel Goepfert

Contact : metmap@orbifly.com




SOURCES & CREDITS :

   NOAA